Time;durP1;ratioP1;P1;durP2;ratioP2;P2;SDS_P1;SDS_P2;PMS_P1;PMS_P2;Temp;Humidity;BMP_temperature;BMP_pressure;BME280_temperature;BME280_humidity;BME280_pressure;Samples;Min_cycle;Max_cycle;Signal;HPM_P1;HPM_P2
2021/08/05 00:00:33;;;;;;;16.13;12.15;;;;;;;;;;2137864;27;20131;-43
2021/08/05 00:01:35;;;;;;;15.85;13.23;;;;;;;;;;2137920;27;20253;-43
2021/08/05 00:02:37;;;;;;;16.05;12.88;;;;;;;;;;2139898;27;20042;-44
2021/08/05 00:03:38;;;;;;;18.10;12.77;;;;;;;;;;2135717;27;20121;-43
2021/08/05 00:04:57;;;;;;;15.27;12.70;;;;;;;;;;2138503;27;20046;-44
2021/08/05 00:05:58;;;;;;;15.82;12.93;;;;;;;;;;2139956;27;20056;-43
2021/08/05 00:06:59;;;;;;;15.85;12.73;;;;;;;;;;2136551;27;20126;-43
2021/08/05 00:08:00;;;;;;;19.00;13.43;;;;;;;;;;2139837;27;20038;-43
2021/08/05 00:09:01;;;;;;;15.35;12.88;;;;;;;;;;2139312;27;20137;-43
2021/08/05 00:10:02;;;;;;;15.50;12.85;;;;;;;;;;2136801;27;20436;-44
2021/08/05 00:11:03;;;;;;;17.83;13.45;;;;;;;;;;2139944;27;20471;-44
2021/08/05 00:12:05;;;;;;;13.17;11.33;;;;;;;;;;2139512;27;20050;-44
2021/08/05 00:13:05;;;;;;;16.55;12.07;;;;;;;;;;2137921;27;20203;-44
2021/08/05 00:14:07;;;;;;;14.73;12.83;;;;;;;;;;2139905;27;20161;-43
2021/08/05 00:15:09;;;;;;;16.30;12.43;;;;;;;;;;2134661;27;20313;-43
2021/08/05 00:16:10;;;;;;;18.30;13.00;;;;;;;;;;2137945;27;20174;-43
2021/08/05 00:17:12;;;;;;;17.85;13.48;;;;;;;;;;2139736;27;20042;-43
2021/08/05 00:18:13;;;;;;;15.77;12.65;;;;;;;;;;2138471;27;20821;-44
2021/08/05 00:19:14;;;;;;;17.25;12.68;;;;;;;;;;2138465;27;20137;-43
2021/08/05 00:20:15;;;;;;;17.13;12.13;;;;;;;;;;2139841;27;20482;-43
2021/08/05 00:21:16;;;;;;;20.45;12.60;;;;;;;;;;2138116;27;20141;-44
2021/08/05 00:22:17;;;;;;;17.58;12.10;;;;;;;;;;2139078;27;20136;-43
2021/08/05 00:23:18;;;;;;;17.40;13.10;;;;;;;;;;2139925;27;20075;-43
2021/08/05 00:24:19;;;;;;;17.73;12.07;;;;;;;;;;2137095;27;20051;-43
2021/08/05 00:25:20;;;;;;;15.52;12.23;;;;;;;;;;2139427;27;20042;-43
2021/08/05 00:26:21;;;;;;;18.43;12.70;;;;;;;;;;2139788;27;20467;-43
2021/08/05 00:27:22;;;;;;;15.57;11.82;;;;;;;;;;2136483;27;20091;-43
2021/08/05 00:28:23;;;;;;;14.60;11.77;;;;;;;;;;2139011;27;20045;-43
2021/08/05 00:29:24;;;;;;;15.57;12.10;;;;;;;;;;2139725;27;20122;-44
2021/08/05 00:30:26;;;;;;;16.90;13.00;;;;;;;;;;2136430;27;20041;-43
2021/08/05 00:31:26;;;;;;;18.08;12.95;;;;;;;;;;2139591;27;20057;-44
2021/08/05 00:32:28;;;;;;;15.53;12.30;;;;;;;;;;2136780;27;20133;-43
2021/08/05 00:33:28;;;;;;;16.90;12.88;;;;;;;;;;2135774;27;20382;-43
2021/08/05 00:34:30;;;;;;;14.70;12.13;;;;;;;;;;2139756;27;20148;-44
2021/08/05 00:35:30;;;;;;;16.73;12.80;;;;;;;;;;2139777;27;20050;-43
2021/08/05 00:36:32;;;;;;;19.13;12.68;;;;;;;;;;2135976;27;20042;-44
2021/08/05 00:37:32;;;;;;;15.73;12.20;;;;;;;;;;2139762;27;20125;-43
2021/08/05 00:38:33;;;;;;;17.17;12.97;;;;;;;;;;2140347;27;20042;-43
2021/08/05 00:39:34;;;;;;;16.70;12.90;;;;;;;;;;2136649;27;20050;-45
2021/08/05 00:40:35;;;;;;;15.57;12.93;;;;;;;;;;2140166;27;20034;-43
2021/08/05 00:41:36;;;;;;;21.20;13.52;;;;;;;;;;2140404;27;20046;-43
2021/08/05 00:42:37;;;;;;;15.07;11.87;;;;;;;;;;2138155;27;20495;-42
2021/08/05 00:43:38;;;;;;;17.50;13.73;;;;;;;;;;2140389;27;20129;-43
2021/08/05 00:44:39;;;;;;;20.03;13.23;;;;;;;;;;2139863;27;20060;-42
2021/08/05 00:45:41;;;;;;;14.70;12.57;;;;;;;;;;2138293;27;20034;-43
2021/08/05 00:46:42;;;;;;;13.32;11.45;;;;;;;;;;2140403;27;20133;-43
2021/08/05 00:47:43;;;;;;;16.02;12.75;;;;;;;;;;2139623;27;20554;-43
2021/08/05 00:48:44;;;;;;;18.45;13.43;;;;;;;;;;2138559;27;20489;-43
2021/08/05 00:49:45;;;;;;;16.55;13.20;;;;;;;;;;2140232;27;20129;-43
2021/08/05 00:50:46;;;;;;;16.77;13.13;;;;;;;;;;2139030;27;20402;-43
2021/08/05 00:51:47;;;;;;;16.67;13.30;;;;;;;;;;2139214;27;20039;-43
2021/08/05 00:52:48;;;;;;;15.90;13.10;;;;;;;;;;2133045;27;20038;-42
2021/08/05 00:53:49;;;;;;;14.50;11.70;;;;;;;;;;2132513;27;20141;-43
2021/08/05 00:54:50;;;;;;;16.43;12.63;;;;;;;;;;2139864;27;20046;-42
2021/08/05 00:55:51;;;;;;;15.40;12.80;;;;;;;;;;2140282;27;20121;-42
2021/08/05 00:56:52;;;;;;;17.13;13.13;;;;;;;;;;2138318;27;20049;-42
2021/08/05 00:57:53;;;;;;;16.50;12.73;;;;;;;;;;2139926;27;20124;-43
2021/08/05 00:58:54;;;;;;;16.98;12.18;;;;;;;;;;2140146;27;20129;-43
2021/08/05 00:59:55;;;;;;;14.57;12.00;;;;;;;;;;2138073;27;20137;-42
2021/08/05 01:01:00;;;;;;;16.47;11.73;;;;;;;;;;2139665;27;20399;-43
2021/08/05 01:02:05;;;;;;;16.52;12.27;;;;;;;;;;2140117;27;20058;-43
2021/08/05 01:03:08;;;;;;;14.63;12.55;;;;;;;;;;2137762;27;20122;-44
2021/08/05 01:04:09;;;;;;;14.80;12.57;;;;;;;;;;2140093;27;20046;-43
2021/08/05 01:05:10;;;;;;;14.53;12.90;;;;;;;;;;2140216;27;20411;-43
2021/08/05 01:06:17;;;;;;;13.20;11.52;;;;;;;;;;2137544;27;20133;-42
2021/08/05 01:07:22;;;;;;;17.73;11.93;;;;;;;;;;2140091;27;20129;-43
2021/08/05 01:08:24;;;;;;;14.65;12.40;;;;;;;;;;2139782;27;20046;-42
2021/08/05 01:09:28;;;;;;;16.85;12.23;;;;;;;;;;2138177;27;20077;-43
2021/08/05 01:10:33;;;;;;;16.38;12.52;;;;;;;;;;2139943;27;20502;-43
2021/08/05 01:11:36;;;;;;;15.50;12.32;;;;;;;;;;2136914;27;20046;-43
2021/08/05 01:12:42;;;;;;;14.88;11.68;;;;;;;;;;2138677;27;20475;-43
2021/08/05 01:13:46;;;;;;;16.67;11.95;;;;;;;;;;2140198;27;20042;-43
2021/08/05 01:14:50;;;;;;;13.98;10.77;;;;;;;;;;2137616;27;20049;-44
2021/08/05 01:15:53;;;;;;;14.57;10.98;;;;;;;;;;2139783;27;20402;-42
2021/08/05 01:16:54;;;;;;;14.60;11.00;;;;;;;;;;2140044;27;20050;-42
2021/08/05 01:17:58;;;;;;;16.52;11.38;;;;;;;;;;2137638;27;20402;-43
2021/08/05 01:19:01;;;;;;;12.98;10.27;;;;;;;;;;2139873;27;20475;-43
2021/08/05 01:20:04;;;;;;;14.05;11.27;;;;;;;;;;2140277;27;20133;-42
2021/08/05 01:21:09;;;;;;;14.05;11.80;;;;;;;;;;2137435;27;20462;-43
2021/08/05 01:22:14;;;;;;;16.45;11.35;;;;;;;;;;2140122;27;20042;-43
2021/08/05 01:23:23;;;;;;;14.93;11.32;;;;;;;;;;2138991;27;20102;-42
2021/08/05 01:24:24;;;;;;;17.40;11.32;;;;;;;;;;2138770;27;20068;-42
2021/08/05 01:25:27;;;;;;;15.75;11.77;;;;;;;;;;2139924;27;20128;-43
2021/08/05 01:26:37;;;;;;;14.88;11.50;;;;;;;;;;2138270;27;20039;-42
2021/08/05 01:27:43;;;;;;;15.30;10.93;;;;;;;;;;2138832;27;20119;-43
2021/08/05 01:28:45;;;;;;;16.20;11.88;;;;;;;;;;2140013;27;20509;-43
2021/08/05 01:29:46;;;;;;;17.45;10.73;;;;;;;;;;2137783;27;20093;-43
2021/08/05 01:30:49;;;;;;;16.33;11.13;;;;;;;;;;2139899;27;20565;-42
2021/08/05 01:31:50;;;;;;;14.68;10.52;;;;;;;;;;2139933;27;20090;-42
2021/08/05 01:32:52;;;;;;;14.23;11.13;;;;;;;;;;2137568;27;20044;-44
2021/08/05 01:33:55;;;;;;;18.38;11.07;;;;;;;;;;2140029;27;20150;-43
2021/08/05 01:34:56;;;;;;;15.35;10.50;;;;;;;;;;2139905;27;20095;-43
2021/08/05 01:35:58;;;;;;;12.88;10.65;;;;;;;;;;2137484;27;20548;-42
2021/08/05 01:37:00;;;;;;;12.50;10.60;;;;;;;;;;2139938;27;20491;-42
2021/08/05 01:38:00;;;;;;;;;;;;;;;;;;2140189;27;20038;-42
2021/08/05 01:39:02;;;;;;;12.98;11.30;;;;;;;;;;2137026;27;19927;-42
2021/08/05 01:40:03;;;;;;;;;;;;;;;;;;2140505;27;20042;-43
2021/08/05 01:41:05;;;;;;;14.15;10.98;;;;;;;;;;2139350;27;20378;-42
2021/08/05 01:42:07;;;;;;;18.80;11.15;;;;;;;;;;2137878;27;20050;-44
2021/08/05 01:43:08;;;;;;;12.32;10.15;;;;;;;;;;2139811;27;20394;-43
2021/08/05 01:44:11;;;;;;;12.50;10.73;;;;;;;;;;2138727;27;20134;-42
2021/08/05 01:45:13;;;;;;;13.73;10.57;;;;;;;;;;2139151;27;20078;-43
2021/08/05 01:46:17;;;;;;;12.65;10.52;;;;;;;;;;2139919;27;20133;-42
2021/08/05 01:47:19;;;;;;;14.02;11.18;;;;;;;;;;2136446;27;20047;-42
2021/08/05 01:48:20;;;;;;;14.38;10.82;;;;;;;;;;2138589;27;20475;-43
2021/08/05 01:49:21;;;;;;;16.30;11.10;;;;;;;;;;2140002;27;20070;-43
2021/08/05 01:50:23;;;;;;;14.30;10.43;;;;;;;;;;2136324;27;20047;-42
2021/08/05 01:51:25;;;;;;;12.50;10.88;;;;;;;;;;2139638;27;20047;-42
2021/08/05 01:52:26;;;;;;;15.85;10.73;;;;;;;;;;2135721;27;20463;-42
2021/08/05 01:53:27;;;;;;;13.20;10.03;;;;;;;;;;2134616;27;20095;-42
2021/08/05 01:54:28;;;;;;;14.07;11.15;;;;;;;;;;2139610;27;20053;-43
2021/08/05 01:55:29;;;;;;;16.40;10.70;;;;;;;;;;2139954;27;20502;-43
2021/08/05 01:56:30;;;;;;;13.82;10.68;;;;;;;;;;2137473;27;20483;-44
2021/08/05 01:57:33;;;;;;;11.07;9.73;;;;;;;;;;2139624;27;20094;-43
2021/08/05 01:58:33;;;;;;;12.90;10.50;;;;;;;;;;2139918;27;20129;-43
2021/08/05 01:59:38;;;;;;;12.60;10.75;;;;;;;;;;2135887;27;20045;-43
2021/08/05 02:00:39;;;;;;;12.98;10.20;;;;;;;;;;2139693;27;20481;-43
2021/08/05 02:01:41;;;;;;;13.35;10.57;;;;;;;;;;2139685;27;20205;-43
2021/08/05 02:02:43;;;;;;;14.55;10.73;;;;;;;;;;2135975;27;20049;-42
2021/08/05 02:03:47;;;;;;;13.93;10.77;;;;;;;;;;2139854;27;20046;-42
2021/08/05 02:05:00;;;;;;;16.00;11.13;;;;;;;;;;2139282;27;20078;-43
2021/08/05 02:06:00;;;;;;;;;;;;;;;;;;2138832;27;20046;-42
2021/08/05 02:07:05;;;;;;;13.45;10.20;;;;;;;;;;2139799;27;19923;-43
2021/08/05 02:08:07;;;;;;;11.85;10.27;;;;;;;;;;2137605;27;20129;-42
2021/08/05 02:09:11;;;;;;;14.63;10.38;;;;;;;;;;2139530;27;20134;-42
2021/08/05 02:10:15;;;;;;;15.43;10.18;;;;;;;;;;2139861;27;20164;-43
2021/08/05 02:11:16;;;;;;;12.77;9.38;;;;;;;;;;2137600;27;20049;-43
2021/08/05 02:12:17;;;;;;;12.98;9.98;;;;;;;;;;2139398;27;20082;-42
2021/08/05 02:13:20;;;;;;;12.52;10.60;;;;;;;;;;2139721;27;20042;-43
2021/08/05 02:14:23;;;;;;;13.80;10.55;;;;;;;;;;2135957;27;20491;-42
2021/08/05 02:15:27;;;;;;;13.18;10.43;;;;;;;;;;2139651;27;20103;-42
2021/08/05 02:16:29;;;;;;;13.52;10.10;;;;;;;;;;2139754;27;20050;-42
2021/08/05 02:17:31;;;;;;;12.63;10.05;;;;;;;;;;2135956;27;20042;-43
2021/08/05 02:18:32;;;;;;;14.20;9.90;;;;;;;;;;2139782;27;20497;-43
2021/08/05 02:19:34;;;;;;;11.70;9.93;;;;;;;;;;2139334;27;20050;-42
2021/08/05 02:20:35;;;;;;;14.13;10.02;;;;;;;;;;2137757;27;20042;-42
2021/08/05 02:21:36;;;;;;;12.43;10.60;;;;;;;;;;2139757;27;20046;-42
2021/08/05 02:22:38;;;;;;;13.48;10.48;;;;;;;;;;2139136;27;20457;-42
2021/08/05 02:23:40;;;;;;;14.23;10.60;;;;;;;;;;2137934;27;20144;-43
2021/08/05 02:24:41;;;;;;;11.80;10.57;;;;;;;;;;2139849;27;20125;-42
2021/08/05 02:25:43;;;;;;;14.75;11.63;;;;;;;;;;2138354;27;20414;-42
2021/08/05 02:26:45;;;;;;;12.95;10.77;;;;;;;;;;2138811;27;20121;-42
2021/08/05 02:27:45;;;;;;;;;;;;;;;;;;2141648;27;20095;-43
2021/08/05 02:28:49;;;;;;;12.98;10.68;;;;;;;;;;2139122;27;19918;-43
2021/08/05 02:29:49;;;;;;;13.20;10.27;;;;;;;;;;2140629;27;20549;-42
2021/08/05 02:30:51;;;;;;;15.37;10.63;;;;;;;;;;2141202;27;20050;-42
2021/08/05 02:31:53;;;;;;;13.05;10.80;;;;;;;;;;2137812;27;20069;-43
2021/08/05 02:32:54;;;;;;;14.88;11.13;;;;;;;;;;2140700;27;20133;-43
2021/08/05 02:33:55;;;;;;;13.30;11.02;;;;;;;;;;2141306;27;20133;-42
2021/08/05 02:34:58;;;;;;;13.95;10.93;;;;;;;;;;2137696;27;20043;-43
2021/08/05 02:35:59;;;;;;;14.63;10.95;;;;;;;;;;2140949;27;20126;-42
2021/08/05 02:37:01;;;;;;;15.00;11.18;;;;;;;;;;2141409;27;20042;-42
2021/08/05 02:38:02;;;;;;;16.63;11.48;;;;;;;;;;2139837;27;20125;-42
2021/08/05 02:39:04;;;;;;;15.27;11.02;;;;;;;;;;2141101;27;20129;-42
2021/08/05 02:40:05;;;;;;;13.73;10.48;;;;;;;;;;2141124;27;20042;-43
2021/08/05 02:41:07;;;;;;;13.63;11.07;;;;;;;;;;2138819;27;20046;-42
2021/08/05 02:42:07;;;;;;;12.40;10.85;;;;;;;;;;2141025;27;20057;-42
2021/08/05 02:43:09;;;;;;;14.10;11.47;;;;;;;;;;2141053;27;20153;-42
2021/08/05 02:44:10;;;;;;;12.93;11.55;;;;;;;;;;2138579;27;20981;-42
2021/08/05 02:45:12;;;;;;;12.85;10.05;;;;;;;;;;2141048;27;20455;-42
2021/08/05 02:46:14;;;;;;;13.50;10.68;;;;;;;;;;2141071;27;20598;-42
2021/08/05 02:47:15;;;;;;;;;;;;;;;;;;2138375;27;20034;-42
2021/08/05 02:48:16;;;;;;;12.85;10.68;;;;;;;;;;2141057;27;19950;-42
2021/08/05 02:49:18;;;;;;;17.20;10.98;;;;;;;;;;2140538;27;20121;-43
2021/08/05 02:50:18;;;;;;;;;;;;;;;;;;2139585;27;20133;-42
2021/08/05 02:51:20;;;;;;;15.68;11.70;;;;;;;;;;2141019;27;20375;-42
2021/08/05 02:52:21;;;;;;;12.85;11.13;;;;;;;;;;2138720;27;20078;-43
2021/08/05 02:53:22;;;;;;;16.23;12.07;;;;;;;;;;2139163;27;20126;-43
2021/08/05 02:54:23;;;;;;;13.60;11.75;;;;;;;;;;2140679;27;20311;-42
2021/08/05 02:55:25;;;;;;;14.40;11.80;;;;;;;;;;2138913;27;20125;-42
2021/08/05 02:56:26;;;;;;;14.15;11.45;;;;;;;;;;2139683;27;20053;-42
2021/08/05 02:57:27;;;;;;;13.87;11.10;;;;;;;;;;2140952;27;20050;-43
2021/08/05 02:58:28;;;;;;;13.30;11.48;;;;;;;;;;2138482;27;20515;-42
2021/08/05 02:59:30;;;;;;;14.30;11.32;;;;;;;;;;2140832;27;20070;-43
2021/08/05 03:00:31;;;;;;;16.45;11.88;;;;;;;;;;2140834;27;20071;-42
2021/08/05 03:01:32;;;;;;;14.20;12.20;;;;;;;;;;2138570;27;20043;-43
2021/08/05 03:02:33;;;;;;;13.93;11.98;;;;;;;;;;2140763;27;20038;-42
2021/08/05 03:03:35;;;;;;;16.15;11.10;;;;;;;;;;2141167;27;20076;-43
2021/08/05 03:04:36;;;;;;;13.73;11.57;;;;;;;;;;2138450;27;20046;-43
2021/08/05 03:05:37;;;;;;;14.98;12.00;;;;;;;;;;2140869;27;20597;-43
2021/08/05 03:06:39;;;;;;;14.90;11.77;;;;;;;;;;2141028;27;20140;-43
2021/08/05 03:07:40;;;;;;;16.20;12.27;;;;;;;;;;2137548;27;20133;-42
2021/08/05 03:08:43;;;;;;;13.07;11.68;;;;;;;;;;2140829;27;20045;-43
2021/08/05 03:09:44;;;;;;;17.00;13.48;;;;;;;;;;2140232;27;20117;-43
2021/08/05 03:10:44;;;;;;;15.60;12.10;;;;;;;;;;2138094;27;20045;-42
2021/08/05 03:11:46;;;;;;;15.33;11.63;;;;;;;;;;2140554;27;20046;-43
2021/08/05 03:12:46;;;;;;;14.77;12.18;;;;;;;;;;2140516;27;20094;-44
2021/08/05 03:13:47;;;;;;;13.10;11.27;;;;;;;;;;2138823;27;20482;-43
2021/08/05 03:14:49;;;;;;;14.90;11.20;;;;;;;;;;2140916;27;20042;-43
2021/08/05 03:15:50;;;;;;;18.55;12.15;;;;;;;;;;2139815;27;20038;-43
2021/08/05 03:16:51;;;;;;;14.15;12.02;;;;;;;;;;2139565;27;20542;-43
2021/08/05 03:17:52;;;;;;;12.97;11.57;;;;;;;;;;2140839;27;20085;-43
2021/08/05 03:18:53;;;;;;;14.27;11.93;;;;;;;;;;2137832;27;20487;-42
2021/08/05 03:19:54;;;;;;;15.00;11.77;;;;;;;;;;2139467;27;20043;-43
2021/08/05 03:20:55;;;;;;;14.07;11.52;;;;;;;;;;2140920;27;20056;-43
2021/08/05 03:21:57;;;;;;;16.20;12.30;;;;;;;;;;2138837;27;20471;-42
2021/08/05 03:22:59;;;;;;;;;;;;;;;;;;2140728;27;20129;-43
2021/08/05 03:24:00;;;;;;;15.40;11.68;;;;;;;;;;2140939;27;20050;-43
2021/08/05 03:25:01;;;;;;;14.20;12.27;;;;;;;;;;2138846;27;20826;-43
2021/08/05 03:26:02;;;;;;;16.75;12.35;;;;;;;;;;2140587;27;20046;-42
2021/08/05 03:27:03;;;;;;;16.45;12.15;;;;;;;;;;2140775;27;20042;-44
2021/08/05 03:28:05;;;;;;;14.20;12.07;;;;;;;;;;2138603;27;20043;-43
2021/08/05 03:29:06;;;;;;;13.05;10.88;;;;;;;;;;2140501;27;20514;-42
2021/08/05 03:30:07;;;;;;;;;;;;;;;;;;2141178;27;20396;-43
2021/08/05 03:31:09;;;;;;;15.95;11.30;;;;;;;;;;2138478;27;19930;-43
2021/08/05 03:32:10;;;;;;;17.13;11.82;;;;;;;;;;2139393;27;20479;-43
2021/08/05 03:33:11;;;;;;;13.02;11.32;;;;;;;;;;2140369;27;20115;-42
2021/08/05 03:34:13;;;;;;;14.20;11.50;;;;;;;;;;2136703;27;20054;-42
2021/08/05 03:35:14;;;;;;;15.70;11.98;;;;;;;;;;2140768;27;20141;-44
2021/08/05 03:36:15;;;;;;;17.87;12.10;;;;;;;;;;2140779;27;20297;-42
2021/08/05 03:37:16;;;;;;;13.65;11.50;;;;;;;;;;2138166;27;20661;-43
2021/08/05 03:38:17;;;;;;;14.73;11.13;;;;;;;;;;2140663;27;20062;-42
2021/08/05 03:39:18;;;;;;;17.10;11.57;;;;;;;;;;2140810;27;20125;-43
2021/08/05 03:40:19;;;;;;;14.93;10.27;;;;;;;;;;2138168;27;20038;-42
2021/08/05 03:41:20;;;;;;;14.15;11.32;;;;;;;;;;2140711;27;20046;-43
2021/08/05 03:42:21;;;;;;;14.23;11.33;;;;;;;;;;2139991;27;20122;-43
2021/08/05 03:43:22;;;;;;;16.13;11.88;;;;;;;;;;2137815;27;20073;-42
2021/08/05 03:44:23;;;;;;;14.83;12.33;;;;;;;;;;2140692;27;20509;-42
2021/08/05 03:45:24;;;;;;;14.13;11.93;;;;;;;;;;2140273;27;20056;-43
2021/08/05 03:46:25;;;;;;;16.53;12.03;;;;;;;;;;2138749;27;20042;-42
2021/08/05 03:47:26;;;;;;;;;;;;;;;;;;2140979;27;20050;-43
2021/08/05 03:48:27;;;;;;;13.00;10.93;;;;;;;;;;2139541;27;19925;-42
2021/08/05 03:49:28;;;;;;;14.90;11.52;;;;;;;;;;2137143;27;20091;-43
2021/08/05 03:50:29;;;;;;;14.00;10.73;;;;;;;;;;2140756;27;20049;-42
2021/08/05 03:51:30;;;;;;;13.07;10.85;;;;;;;;;;2139051;27;20680;-43
2021/08/05 03:52:31;;;;;;;13.93;12.07;;;;;;;;;;2135042;27;20147;-43
2021/08/05 03:53:35;;;;;;;16.23;12.07;;;;;;;;;;2131928;27;20457;-42
2021/08/05 03:54:36;;;;;;;18.47;12.57;;;;;;;;;;2132422;27;20072;-43
2021/08/05 03:55:38;;;;;;;15.23;11.70;;;;;;;;;;2140237;27;20129;-42
2021/08/05 03:56:39;;;;;;;16.27;11.95;;;;;;;;;;2140629;27;20121;-42
2021/08/05 03:57:39;;;;;;;13.93;10.98;;;;;;;;;;2138595;27;20145;-43
2021/08/05 03:58:41;;;;;;;13.88;12.35;;;;;;;;;;2140101;27;20050;-43
2021/08/05 03:59:42;;;;;;;15.35;11.63;;;;;;;;;;2140683;27;20049;-42
2021/08/05 04:00:43;;;;;;;16.60;12.37;;;;;;;;;;2138380;27;20158;-42
2021/08/05 04:01:45;;;;;;;14.75;11.77;;;;;;;;;;2140438;27;20042;-42
2021/08/05 04:02:46;;;;;;;15.25;12.18;;;;;;;;;;2140555;27;20057;-42
2021/08/05 04:03:47;;;;;;;18.60;12.35;;;;;;;;;;2138471;27;20034;-43
2021/08/05 04:04:48;;;;;;;17.17;12.43;;;;;;;;;;2139647;27;20489;-43
2021/08/05 04:05:52;;;;;;;14.07;11.85;;;;;;;;;;2140612;27;20087;-43
2021/08/05 04:06:54;;;;;;;13.80;11.37;;;;;;;;;;2138450;27;20042;-43
2021/08/05 04:07:55;;;;;;;14.05;11.60;;;;;;;;;;2131700;27;20179;-42
2021/08/05 04:08:56;;;;;;;15.97;11.70;;;;;;;;;;2132023;27;20087;-42
2021/08/05 04:09:57;;;;;;;14.93;12.52;;;;;;;;;;2137474;27;20034;-42
2021/08/05 04:10:58;;;;;;;14.70;11.73;;;;;;;;;;2140422;27;20042;-43
2021/08/05 04:11:59;;;;;;;14.27;12.30;;;;;;;;;;2140635;27;20124;-43
2021/08/05 04:13:00;;;;;;;16.33;13.00;;;;;;;;;;2138602;27;20042;-43
2021/08/05 04:14:01;;;;;;;14.43;12.30;;;;;;;;;;2140408;27;20620;-43
2021/08/05 04:15:03;;;;;;;14.77;13.23;;;;;;;;;;2140071;27;20043;-42
2021/08/05 04:16:04;;;;;;;15.90;12.00;;;;;;;;;;2138587;27;20110;-42
2021/08/05 04:17:06;;;;;;;16.85;12.27;;;;;;;;;;2140438;27;20456;-43
2021/08/05 04:18:07;;;;;;;16.50;11.80;;;;;;;;;;2139728;27;20560;-42
2021/08/05 04:19:08;;;;;;;14.13;11.73;;;;;;;;;;2138873;27;20562;-43
2021/08/05 04:20:09;;;;;;;13.73;11.25;;;;;;;;;;2140582;27;20072;-43
2021/08/05 04:21:10;;;;;;;13.25;11.05;;;;;;;;;;2138803;27;20121;-42
2021/08/05 04:22:11;;;;;;;17.73;12.57;;;;;;;;;;2139789;27;20038;-43
2021/08/05 04:23:13;;;;;;;12.48;11.02;;;;;;;;;;2140408;27;20106;-42
2021/08/05 04:24:14;;;;;;;14.52;10.85;;;;;;;;;;2136961;27;20468;-43
2021/08/05 04:25:15;;;;;;;14.47;12.20;;;;;;;;;;2139919;27;20072;-43
2021/08/05 04:26:16;;;;;;;14.38;11.70;;;;;;;;;;2140547;27;20053;-42
2021/08/05 04:27:17;;;;;;;15.93;12.87;;;;;;;;;;2138341;27;20467;-42
2021/08/05 04:28:18;;;;;;;12.02;10.55;;;;;;;;;;2140043;27;20053;-42
2021/08/05 04:29:19;;;;;;;15.13;10.63;;;;;;;;;;2140335;27;20600;-42
2021/08/05 04:30:21;;;;;;;14.10;10.57;;;;;;;;;;2138265;27;20176;-42
2021/08/05 04:31:22;;;;;;;;;;;;;;;;;;2139715;27;20125;-42
2021/08/05 04:32:24;;;;;;;16.98;11.32;;;;;;;;;;2140307;27;20275;-42
2021/08/05 04:33:25;;;;;;;13.50;11.50;;;;;;;;;;2136752;27;20069;-43
2021/08/05 04:34:26;;;;;;;16.25;11.55;;;;;;;;;;2140136;27;20062;-42
2021/08/05 04:35:27;;;;;;;15.70;11.63;;;;;;;;;;2140477;27;20068;-42
2021/08/05 04:36:28;;;;;;;15.55;12.25;;;;;;;;;;2137995;27;20274;-43
2021/08/05 04:37:29;;;;;;;13.80;11.13;;;;;;;;;;2140291;27;20133;-43
2021/08/05 04:38:30;;;;;;;13.85;11.80;;;;;;;;;;2140305;27;20604;-42
2021/08/05 04:39:32;;;;;;;16.87;11.80;;;;;;;;;;2136564;27;20042;-42
2021/08/05 04:40:32;;;;;;;12.23;10.75;;;;;;;;;;2140417;27;20125;-42
2021/08/05 04:41:34;;;;;;;15.43;11.40;;;;;;;;;;2140204;27;20388;-42
2021/08/05 04:42:34;;;;;;;13.98;11.18;;;;;;;;;;2137825;27;20046;-43
2021/08/05 04:43:36;;;;;;;15.83;11.90;;;;;;;;;;2140338;27;20050;-42
2021/08/05 04:44:36;;;;;;;14.18;11.73;;;;;;;;;;2139997;27;20046;-42
2021/08/05 04:45:38;;;;;;;15.68;12.20;;;;;;;;;;2137806;27;20038;-42
2021/08/05 04:46:39;;;;;;;15.30;12.48;;;;;;;;;;2140366;27;20046;-43
2021/08/05 04:47:51;;;;;;;18.50;12.80;;;;;;;;;;2139849;27;20050;-42
2021/08/05 04:48:52;;;;;;;14.32;12.02;;;;;;;;;;2139264;27;20468;-43
2021/08/05 04:49:53;;;;;;;14.85;11.90;;;;;;;;;;2139471;27;20519;-43
2021/08/05 04:50:54;;;;;;;14.07;11.50;;;;;;;;;;2138236;27;20859;-43
2021/08/05 04:51:55;;;;;;;16.00;12.20;;;;;;;;;;2139901;27;20124;-43
2021/08/05 04:52:56;;;;;;;13.32;11.00;;;;;;;;;;2131958;27;20767;-43
2021/08/05 04:53:57;;;;;;;14.88;11.50;;;;;;;;;;2133268;27;20398;-43
2021/08/05 04:54:58;;;;;;;13.35;11.38;;;;;;;;;;2138690;27;20154;-44
2021/08/05 04:55:59;;;;;;;13.40;11.13;;;;;;;;;;2140356;27;20050;-43
2021/08/05 04:57:00;;;;;;;17.08;12.10;;;;;;;;;;2138016;27;20158;-43
2021/08/05 04:58:02;;;;;;;16.10;11.57;;;;;;;;;;2139805;27;20048;-43
2021/08/05 04:59:03;;;;;;;13.48;11.55;;;;;;;;;;2140034;27;20125;-43
2021/08/05 05:00:04;;;;;;;12.70;10.50;;;;;;;;;;2136540;27;20054;-43
2021/08/05 05:01:05;;;;;;;15.18;11.70;;;;;;;;;;2139871;27;20406;-43
2021/08/05 05:02:07;;;;;;;14.32;12.35;;;;;;;;;;2140002;27;20128;-42
2021/08/05 05:03:09;;;;;;;12.68;11.30;;;;;;;;;;2136744;27;20060;-42
2021/08/05 05:04:11;;;;;;;12.05;10.38;;;;;;;;;;2139200;27;20125;-43
2021/08/05 05:05:11;;;;;;;14.48;11.25;;;;;;;;;;2140310;27;20125;-43
2021/08/05 05:06:12;;;;;;;17.37;11.30;;;;;;;;;;2136406;27;20471;-43
2021/08/05 05:07:13;;;;;;;13.85;11.13;;;;;;;;;;2137036;27;20133;-43
2021/08/05 05:08:15;;;;;;;15.13;12.07;;;;;;;;;;2135019;27;20076;-43
2021/08/05 05:09:16;;;;;;;15.15;12.27;;;;;;;;;;2135803;27;20050;-43
2021/08/05 05:10:18;;;;;;;13.68;11.45;;;;;;;;;;2136973;27;20510;-43
2021/08/05 05:11:19;;;;;;;;;;;;;;;;;;2134880;27;20062;-42
2021/08/05 05:12:20;;;;;;;17.33;12.13;;;;;;;;;;2135324;27;19937;-43
2021/08/05 05:13:21;;;;;;;14.80;12.27;;;;;;;;;;2134281;27;20051;-43
2021/08/05 05:14:22;;;;;;;18.63;13.60;;;;;;;;;;2136139;27;20133;-42
2021/08/05 05:15:23;;;;;;;16.92;12.20;;;;;;;;;;2136060;27;20035;-43
2021/08/05 05:16:24;;;;;;;15.07;12.45;;;;;;;;;;2137184;27;20043;-43
2021/08/05 05:17:25;;;;;;;14.77;12.70;;;;;;;;;;2136125;27;20052;-43
2021/08/05 05:18:27;;;;;;;15.97;11.57;;;;;;;;;;2136916;27;20072;-42
2021/08/05 05:19:27;;;;;;;16.10;11.88;;;;;;;;;;2137020;27;20042;-43
2021/08/05 05:20:29;;;;;;;12.83;11.10;;;;;;;;;;2136392;27;20125;-43
2021/08/05 05:21:30;;;;;;;16.23;12.38;;;;;;;;;;2136548;27;20077;-43
2021/08/05 05:22:31;;;;;;;17.00;12.10;;;;;;;;;;2136855;27;20477;-43
2021/08/05 05:23:32;;;;;;;14.70;12.20;;;;;;;;;;2135009;27;20042;-43
2021/08/05 05:24:33;;;;;;;15.55;11.93;;;;;;;;;;2137907;27;20558;-43
2021/08/05 05:25:38;;;;;;;15.43;13.00;;;;;;;;;;2133969;27;20042;-43
2021/08/05 05:26:39;;;;;;;14.82;12.65;;;;;;;;;;2135278;27;20133;-42
2021/08/05 05:27:41;;;;;;;16.53;12.90;;;;;;;;;;2136079;27;20479;-44
2021/08/05 05:28:42;;;;;;;14.38;12.60;;;;;;;;;;2136353;27;20341;-43
2021/08/05 05:29:43;;;;;;;17.97;13.20;;;;;;;;;;2136474;27;20129;-42
2021/08/05 05:30:44;;;;;;;16.23;13.20;;;;;;;;;;2134498;27;20050;-42
2021/08/05 05:31:45;;;;;;;22.00;14.07;;;;;;;;;;2135620;27;20042;-42
2021/08/05 05:32:46;;;;;;;18.77;13.65;;;;;;;;;;2132648;27;20394;-44
2021/08/05 05:33:48;;;;;;;18.85;13.40;;;;;;;;;;2136839;27;20035;-42
2021/08/05 05:34:49;;;;;;;;;;;;;;;;;;2136997;27;20121;-42
2021/08/05 05:35:50;;;;;;;16.15;12.63;;;;;;;;;;2136458;27;19979;-44
2021/08/05 05:36:51;;;;;;;18.55;12.45;;;;;;;;;;2138064;27;20050;-43
2021/08/05 05:37:53;;;;;;;15.27;12.30;;;;;;;;;;2135697;27;20043;-43
2021/08/05 05:38:54;;;;;;;;;;;;;;;;;;2136477;27;20046;-44
2021/08/05 05:39:55;;;;;;;17.52;12.60;;;;;;;;;;2133219;27;20089;-43
2021/08/05 05:40:56;;;;;;;18.65;12.88;;;;;;;;;;2132278;27;20052;-43
2021/08/05 05:41:57;;;;;;;15.63;13.10;;;;;;;;;;2135696;27;20624;-44
2021/08/05 05:43:00;;;;;;;17.50;13.55;;;;;;;;;;2132807;27;20055;-43
2021/08/05 05:44:01;;;;;;;16.30;13.48;;;;;;;;;;2132358;27;20168;-42
2021/08/05 05:45:02;;;;;;;19.80;14.23;;;;;;;;;;2136692;27;20559;-43
2021/08/05 05:46:04;;;;;;;18.60;14.90;;;;;;;;;;2132361;27;20074;-43
2021/08/05 05:47:05;;;;;;;16.92;13.60;;;;;;;;;;2132512;27;20106;-42
2021/08/05 05:48:07;;;;;;;19.73;14.10;;;;;;;;;;2136830;27;20444;-42
2021/08/05 05:49:09;;;;;;;19.25;12.68;;;;;;;;;;2139046;27;20137;-42
2021/08/05 05:50:11;;;;;;;19.67;13.57;;;;;;;;;;2137750;27;20069;-42
2021/08/05 05:51:11;;;;;;;;;;;;;;;;;;2137465;27;20129;-42
2021/08/05 05:52:13;;;;;;;19.55;12.15;;;;;;;;;;2136933;27;19944;-42
2021/08/05 05:53:15;;;;;;;18.73;13.38;;;;;;;;;;2138083;27;20098;-42
2021/08/05 05:54:16;;;;;;;16.08;12.55;;;;;;;;;;2138560;27;20049;-42
2021/08/05 05:55:17;;;;;;;16.92;12.63;;;;;;;;;;2139086;27;20042;-42
2021/08/05 05:56:18;;;;;;;19.85;13.27;;;;;;;;;;2137967;27;20049;-42
2021/08/05 05:57:19;;;;;;;15.48;12.65;;;;;;;;;;2138571;27;20129;-43
2021/08/05 05:58:22;;;;;;;14.93;13.15;;;;;;;;;;2139102;27;20117;-42
2021/08/05 05:59:22;;;;;;;16.52;12.43;;;;;;;;;;2135693;27;20160;-42
2021/08/05 06:00:24;;;;;;;16.30;13.30;;;;;;;;;;2137614;27;20079;-43